Time;durP1;ratioP1;P1;durP2;ratioP2;P2;SDS_P1;SDS_P2;PMS_P1;PMS_P2;Temp;Humidity;BMP_temperature;BMP_pressure;BME280_temperature;BME280_humidity;BME280_pressure;Samples;Min_cycle;Max_cycle;Signal;HPM_P1;HPM_P2
2021/12/16 00:08:42;;;;;;;20.65;10.82;;;;;;;;;;5016505;28;20045;-60
2021/12/16 00:19:19;;;;;;;20.00;10.38;;;;;;;;;;5019246;28;20026;-60
2021/12/16 00:33:16;;;;;;;20.25;10.73;;;;;;;;;;5021007;28;20061;-57
2021/12/16 00:35:43;;;;;;;19.15;10.02;;;;;;;;;;5019056;28;20037;-59
2021/12/16 00:38:09;;;;;;;20.95;10.57;;;;;;;;;;5022723;28;20504;-60
2021/12/16 00:40:39;;;;;;;20.80;10.95;;;;;;;;;;5018093;28;20025;-57
2021/12/16 00:43:19;;;;;;;24.60;11.00;;;;;;;;;;5020683;28;20013;-58
2021/12/16 00:46:11;;;;;;;21.92;10.48;;;;;;;;;;5019693;28;20152;-60
2021/12/16 00:56:31;;;;;;;18.90;10.38;;;;;;;;;;5033426;28;20124;-56
2021/12/16 00:58:58;;;;;;;20.17;10.60;;;;;;;;;;5027812;28;20509;-59
2021/12/16 01:01:40;;;;;;;20.52;9.98;;;;;;;;;;4998469;28;20523;-57
2021/12/16 01:34:30;;;;;;;20.27;10.00;;;;;;;;;;4786109;29;20081;-56
2021/12/16 01:37:15;;;;;;;21.42;11.80;;;;;;;;;;4698166;30;20066;-58
2021/12/16 01:40:06;;;;;;;20.60;11.40;;;;;;;;;;4575008;30;20061;-59
2021/12/16 01:51:01;;;;;;;19.90;10.70;;;;;;;;;;5138139;27;20015;-55
2021/12/16 01:56:15;;;;;;;21.65;10.60;;;;;;;;;;5002670;28;20133;-58
2021/12/16 01:58:40;;;;;;;17.80;10.75;;;;;;;;;;4830746;29;20121;-57
2021/12/16 02:03:55;;;;;;;19.85;11.20;;;;;;;;;;4532939;31;20374;-56
2021/12/16 02:08:50;;;;;;;17.20;10.13;;;;;;;;;;5166899;27;21555;-52
2021/12/16 02:37:32;;;;;;;15.93;9.70;;;;;;;;;;5128265;27;21352;-51
2021/12/16 02:39:58;;;;;;;16.98;9.65;;;;;;;;;;5137370;27;20507;-54
2021/12/16 02:42:35;;;;;;;16.95;9.65;;;;;;;;;;5118871;27;20023;-56
2021/12/16 02:50:24;;;;;;;15.73;9.27;;;;;;;;;;4723989;29;20114;-55
2021/12/16 02:52:50;;;;;;;17.55;9.88;;;;;;;;;;4677504;30;20046;-53
2021/12/16 02:55:18;;;;;;;17.25;10.00;;;;;;;;;;4572123;30;20072;-53
2021/12/16 03:00:20;;;;;;;18.42;10.27;;;;;;;;;;5150678;27;20526;-55
2021/12/16 03:02:50;;;;;;;17.13;9.73;;;;;;;;;;5163428;27;20042;-53
2021/12/16 03:05:19;;;;;;;16.98;10.38;;;;;;;;;;5140445;27;20063;-57
2021/12/16 03:07:44;;;;;;;18.25;9.80;;;;;;;;;;5097932;27;20123;-56
2021/12/16 03:10:53;;;;;;;17.95;9.65;;;;;;;;;;5039598;28;20487;-57
2021/12/16 03:13:23;;;;;;;15.82;9.52;;;;;;;;;;5002874;28;20038;-54
2021/12/16 03:18:31;;;;;;;15.77;9.70;;;;;;;;;;4754256;29;20051;-55
2021/12/16 03:21:08;;;;;;;13.32;9.00;;;;;;;;;;4587458;30;20049;-55
2021/12/16 03:25:26;;;;;;;15.85;9.73;;;;;;;;;;5149171;27;20114;-55
2021/12/16 03:35:33;;;;;;;16.15;9.18;;;;;;;;;;5020772;28;20031;-54
2021/12/16 03:38:06;;;;;;;15.85;9.55;;;;;;;;;;4901929;28;20135;-54
2021/12/16 03:40:33;;;;;;;15.75;9.27;;;;;;;;;;4841238;29;20062;-55
2021/12/16 03:43:04;;;;;;;17.60;9.88;;;;;;;;;;4693880;29;20043;-54
2021/12/16 03:48:33;;;;;;;18.55;9.30;;;;;;;;;;5143888;27;20131;-52
2021/12/16 03:51:00;;;;;;;17.58;9.77;;;;;;;;;;5107393;27;20082;-52
2021/12/16 03:53:25;;;;;;;16.98;9.35;;;;;;;;;;5128120;27;20336;-56
2021/12/16 03:55:52;;;;;;;15.63;9.55;;;;;;;;;;5122180;27;20038;-58
2021/12/16 03:58:18;;;;;;;16.88;9.95;;;;;;;;;;5096548;27;20087;-58
2021/12/16 04:03:26;;;;;;;17.60;9.80;;;;;;;;;;5058551;28;20871;-54
2021/12/16 04:05:52;;;;;;;16.65;9.85;;;;;;;;;;5040763;28;20106;-56
2021/12/16 04:08:18;;;;;;;18.70;10.32;;;;;;;;;;5043369;28;20079;-55
2021/12/16 04:11:01;;;;;;;18.35;10.10;;;;;;;;;;5040622;28;20033;-57
2021/12/16 04:13:26;;;;;;;15.60;9.90;;;;;;;;;;5040645;28;20025;-56
2021/12/16 04:15:52;;;;;;;18.98;10.00;;;;;;;;;;5039133;28;20044;-57
2021/12/16 04:18:18;;;;;;;17.65;9.75;;;;;;;;;;5042929;28;20082;-56
2021/12/16 04:20:44;;;;;;;20.35;9.52;;;;;;;;;;5039694;28;20040;-55
2021/12/16 04:23:11;;;;;;;16.10;9.77;;;;;;;;;;5042891;28;20242;-56
2021/12/16 04:25:41;;;;;;;18.38;9.80;;;;;;;;;;5044312;28;20134;-56
2021/12/16 04:28:13;;;;;;;21.65;9.02;;;;;;;;;;5042455;28;20457;-57
2021/12/16 04:30:39;;;;;;;16.30;10.05;;;;;;;;;;5044473;28;20185;-56
2021/12/16 04:33:04;;;;;;;20.90;10.05;;;;;;;;;;5042903;28;20060;-57
2021/12/16 04:35:30;;;;;;;14.93;9.68;;;;;;;;;;5040207;28;20070;-58
2021/12/16 04:37:56;;;;;;;15.35;8.75;;;;;;;;;;5041166;28;20087;-56
2021/12/16 04:40:22;;;;;;;15.77;9.15;;;;;;;;;;5044129;28;20048;-56
2021/12/16 04:42:48;;;;;;;16.60;9.65;;;;;;;;;;5041632;28;20025;-56
2021/12/16 04:45:19;;;;;;;31.65;16.45;;;;;;;;;;5041866;28;20441;-55
2021/12/16 04:47:45;;;;;;;25.23;10.57;;;;;;;;;;5039719;28;20107;-53
2021/12/16 04:50:12;;;;;;;17.58;10.13;;;;;;;;;;5043535;28;20545;-54
2021/12/16 04:52:38;;;;;;;16.23;10.10;;;;;;;;;;5043419;28;20574;-56
2021/12/16 04:55:06;;;;;;;17.80;9.50;;;;;;;;;;5041534;28;20079;-55
2021/12/16 04:57:32;;;;;;;17.10;9.75;;;;;;;;;;5055918;28;20357;-57
2021/12/16 04:59:58;;;;;;;22.30;10.55;;;;;;;;;;5039678;28;20313;-57
2021/12/16 05:02:26;;;;;;;17.23;10.25;;;;;;;;;;5037455;28;20092;-56
2021/12/16 05:04:52;;;;;;;15.73;9.77;;;;;;;;;;5039533;28;20124;-53
2021/12/16 05:07:18;;;;;;;16.58;9.73;;;;;;;;;;5040283;28;20045;-54
2021/12/16 05:12:30;;;;;;;16.02;9.40;;;;;;;;;;5039080;28;20531;-53
2021/12/16 05:14:56;;;;;;;15.70;9.43;;;;;;;;;;5023641;28;20025;-54
2021/12/16 05:17:27;;;;;;;20.77;8.80;;;;;;;;;;5026669;28;20385;-56
2021/12/16 05:19:53;;;;;;;19.50;9.85;;;;;;;;;;5025191;28;20140;-57
2021/12/16 05:25:08;;;;;;;22.90;10.20;;;;;;;;;;5026092;28;20052;-55
2021/12/16 05:27:34;;;;;;;15.80;9.43;;;;;;;;;;5026640;28;20054;-57
2021/12/16 05:29:59;;;;;;;16.23;9.55;;;;;;;;;;5031837;28;20033;-55
2021/12/16 05:32:25;;;;;;;15.70;9.73;;;;;;;;;;5026182;28;20037;-57
2021/12/16 05:34:50;;;;;;;18.63;9.93;;;;;;;;;;5026195;28;20116;-60
2021/12/16 05:37:16;;;;;;;17.05;9.77;;;;;;;;;;5026394;28;20055;-55
2021/12/16 05:39:41;;;;;;;17.15;9.80;;;;;;;;;;5026247;28;20399;-57
2021/12/16 05:42:07;;;;;;;18.58;10.40;;;;;;;;;;5024647;28;20014;-53
2021/12/16 05:44:32;;;;;;;21.02;10.90;;;;;;;;;;5028326;28;20227;-57
2021/12/16 05:46:58;;;;;;;19.65;9.82;;;;;;;;;;5023990;28;20045;-55
2021/12/16 05:49:24;;;;;;;18.05;10.43;;;;;;;;;;5023801;28;20025;-52
2021/12/16 05:51:50;;;;;;;18.83;9.57;;;;;;;;;;5028533;28;20068;-55
2021/12/16 05:54:18;;;;;;;16.98;10.32;;;;;;;;;;5025907;28;20076;-55
2021/12/16 05:56:44;;;;;;;16.13;9.73;;;;;;;;;;5026622;28;20037;-56
2021/12/16 05:59:12;;;;;;;17.67;10.50;;;;;;;;;;5025581;28;20051;-53
2021/12/16 06:01:39;;;;;;;17.27;10.02;;;;;;;;;;5025881;28;20025;-56
2021/12/16 06:04:05;;;;;;;24.88;10.93;;;;;;;;;;5023635;28;20025;-57
2021/12/16 06:06:31;;;;;;;17.85;10.57;;;;;;;;;;5028673;28;20370;-57
2021/12/16 06:08:57;;;;;;;19.98;10.70;;;;;;;;;;5025624;28;20037;-53
2021/12/16 06:11:28;;;;;;;18.65;9.65;;;;;;;;;;5027544;28;20033;-53
2021/12/16 06:22:30;;;;;;;14.68;9.13;;;;;;;;;;5025793;28;20401;-53
2021/12/16 06:27:45;;;;;;;17.38;9.93;;;;;;;;;;5025920;28;20458;-55
2021/12/16 06:30:13;;;;;;;19.38;9.82;;;;;;;;;;5024372;28;20040;-53
2021/12/16 06:32:39;;;;;;;16.95;10.32;;;;;;;;;;5024170;28;20497;-56
2021/12/16 06:35:06;;;;;;;17.40;10.75;;;;;;;;;;5023423;28;20037;-55
2021/12/16 06:37:31;;;;;;;19.05;10.38;;;;;;;;;;5024770;28;20029;-56
2021/12/16 06:39:57;;;;;;;17.25;10.10;;;;;;;;;;5026080;28;20029;-55
2021/12/16 06:42:24;;;;;;;19.98;10.23;;;;;;;;;;5022339;28;20064;-54
2021/12/16 06:44:54;;;;;;;20.05;10.35;;;;;;;;;;5023522;28;20040;-52
2021/12/16 06:47:26;;;;;;;23.65;10.82;;;;;;;;;;5023402;28;20060;-54
2021/12/16 06:49:53;;;;;;;16.15;9.98;;;;;;;;;;5026926;28;20112;-54
2021/12/16 06:52:24;;;;;;;16.27;9.75;;;;;;;;;;5024117;28;20025;-56
2021/12/16 06:57:44;;;;;;;24.30;10.73;;;;;;;;;;5024764;28;20029;-51
2021/12/16 07:00:29;;;;;;;18.23;9.98;;;;;;;;;;5025358;28;20095;-58
2021/12/16 07:02:58;;;;;;;17.67;10.30;;;;;;;;;;5023075;28;20139;-56
2021/12/16 07:05:30;;;;;;;16.17;9.82;;;;;;;;;;5026274;28;20433;-55
2021/12/16 07:07:57;;;;;;;18.87;10.03;;;;;;;;;;5023519;28;20120;-57
2021/12/16 07:10:22;;;;;;;15.77;9.52;;;;;;;;;;5022025;28;20327;-58
2021/12/16 07:12:49;;;;;;;18.30;10.18;;;;;;;;;;5021909;28;20024;-54
2021/12/16 07:15:24;;;;;;;18.02;10.23;;;;;;;;;;5025767;28;20038;-52
2021/12/16 07:17:51;;;;;;;19.08;9.30;;;;;;;;;;5021185;28;20045;-55
2021/12/16 07:20:20;;;;;;;18.48;10.52;;;;;;;;;;5026893;28;20037;-53
2021/12/16 07:22:46;;;;;;;17.05;9.85;;;;;;;;;;5023746;28;20154;-57
2021/12/16 07:25:11;;;;;;;16.75;9.80;;;;;;;;;;5024061;28;21050;-56
2021/12/16 07:27:37;;;;;;;19.38;9.93;;;;;;;;;;5021987;28;20095;-54
2021/12/16 07:30:09;;;;;;;21.15;9.57;;;;;;;;;;5024695;28;20029;-56
2021/12/16 07:32:35;;;;;;;20.77;10.88;;;;;;;;;;5025483;28;20544;-54
2021/12/16 07:35:01;;;;;;;15.27;9.90;;;;;;;;;;5023260;28;20426;-55
2021/12/16 07:37:26;;;;;;;18.58;9.32;;;;;;;;;;5020211;28;20134;-58
2021/12/16 07:39:52;;;;;;;21.08;10.75;;;;;;;;;;5023706;28;20034;-59
2021/12/16 07:42:26;;;;;;;20.85;10.02;;;;;;;;;;5026162;28;20366;-54
2021/12/16 07:44:52;;;;;;;18.20;10.48;;;;;;;;;;5022613;28;20033;-56
2021/12/16 07:47:17;;;;;;;18.20;9.57;;;;;;;;;;5021551;28;20033;-56
2021/12/16 07:49:44;;;;;;;23.20;11.20;;;;;;;;;;5024304;28;20025;-56
2021/12/16 07:52:16;;;;;;;19.27;10.48;;;;;;;;;;5023260;28;20037;-52
2021/12/16 07:54:42;;;;;;;18.08;10.23;;;;;;;;;;5023751;28;20507;-53
2021/12/16 07:57:08;;;;;;;22.35;10.38;;;;;;;;;;5024214;28;20057;-54
2021/12/16 07:59:35;;;;;;;17.30;9.43;;;;;;;;;;5022484;28;20554;-53
2021/12/16 08:02:01;;;;;;;20.15;10.88;;;;;;;;;;5020381;28;20065;-54
2021/12/16 08:04:30;;;;;;;22.98;10.90;;;;;;;;;;5022280;28;20513;-52
2021/12/16 08:07:04;;;;;;;22.67;10.63;;;;;;;;;;5023485;28;20041;-56
2021/12/16 08:09:31;;;;;;;19.10;10.43;;;;;;;;;;5022706;28;20043;-52
2021/12/16 08:11:56;;;;;;;19.63;10.75;;;;;;;;;;5024383;28;20036;-56
2021/12/16 08:14:23;;;;;;;20.42;11.18;;;;;;;;;;5024159;28;20029;-53
2021/12/16 08:16:49;;;;;;;17.60;10.07;;;;;;;;;;5022038;28;20044;-54
2021/12/16 08:19:14;;;;;;;20.33;10.07;;;;;;;;;;5021904;28;20044;-54
2021/12/16 08:21:42;;;;;;;20.10;10.50;;;;;;;;;;5022265;28;20108;-51
2021/12/16 08:24:14;;;;;;;24.20;10.35;;;;;;;;;;5020681;28;20045;-56
2021/12/16 08:26:40;;;;;;;23.70;10.95;;;;;;;;;;5024067;28;20814;-54
2021/12/16 08:29:06;;;;;;;22.52;12.65;;;;;;;;;;5022476;28;20052;-53
2021/12/16 08:31:33;;;;;;;23.70;12.63;;;;;;;;;;5025862;28;20133;-53
2021/12/16 08:33:58;;;;;;;28.17;12.00;;;;;;;;;;5021041;28;20402;-54
2021/12/16 08:36:24;;;;;;;22.48;11.35;;;;;;;;;;5023187;28;20076;-55
2021/12/16 08:38:50;;;;;;;21.20;11.57;;;;;;;;;;5023670;28;20061;-51
2021/12/16 08:41:21;;;;;;;23.13;11.55;;;;;;;;;;5021664;28;20061;-55
2021/12/16 08:43:47;;;;;;;21.15;10.98;;;;;;;;;;5021631;28;20468;-56
2021/12/16 08:46:21;;;;;;;24.40;12.30;;;;;;;;;;5026148;28;20147;-53
2021/12/16 08:48:47;;;;;;;19.83;10.48;;;;;;;;;;5022680;28;20116;-56
2021/12/16 08:51:15;;;;;;;21.63;10.30;;;;;;;;;;5026651;28;20507;-55
2021/12/16 08:53:41;;;;;;;17.92;10.68;;;;;;;;;;5027351;28;20528;-53
2021/12/16 08:56:08;;;;;;;19.80;11.07;;;;;;;;;;5026971;28;20032;-54
2021/12/16 08:58:34;;;;;;;22.27;10.77;;;;;;;;;;5025376;28;20029;-55
2021/12/16 09:01:07;;;;;;;22.85;12.13;;;;;;;;;;5021631;28;21027;-56
2021/12/16 09:03:32;;;;;;;21.15;10.40;;;;;;;;;;5065351;28;20376;-53
2021/12/16 09:05:58;;;;;;;20.23;11.05;;;;;;;;;;5044979;28;20041;-58
2021/12/16 09:08:24;;;;;;;22.00;11.25;;;;;;;;;;5029690;28;20033;-53
2021/12/16 09:10:50;;;;;;;18.70;10.88;;;;;;;;;;5046107;28;20234;-54
2021/12/16 09:13:17;;;;;;;24.40;11.10;;;;;;;;;;4991860;28;20483;-56
2021/12/16 09:15:50;;;;;;;19.55;10.82;;;;;;;;;;4866432;29;20057;-55
2021/12/16 09:18:19;;;;;;;21.77;11.30;;;;;;;;;;4803842;29;20091;-57
2021/12/16 09:20:44;;;;;;;23.83;11.23;;;;;;;;;;4705003;30;20115;-52
2021/12/16 09:23:13;;;;;;;24.35;10.82;;;;;;;;;;4641524;30;20045;-54
2021/12/16 09:28:07;;;;;;;21.15;10.45;;;;;;;;;;5155191;27;20114;-53
2021/12/16 09:30:34;;;;;;;21.98;11.05;;;;;;;;;;5171379;27;20041;-52
2021/12/16 09:33:03;;;;;;;22.65;10.80;;;;;;;;;;5149653;27;20027;-54
2021/12/16 09:35:33;;;;;;;20.85;11.10;;;;;;;;;;5160356;27;20030;-52
2021/12/16 09:37:59;;;;;;;20.83;11.40;;;;;;;;;;5135433;27;20039;-52
2021/12/16 09:40:28;;;;;;;19.75;10.93;;;;;;;;;;5043398;28;20550;-51
2021/12/16 09:42:55;;;;;;;23.65;11.40;;;;;;;;;;4872127;29;20498;-49
2021/12/16 09:45:21;;;;;;;19.10;10.70;;;;;;;;;;4813405;29;20412;-52
2021/12/16 09:47:48;;;;;;;19.10;10.43;;;;;;;;;;4653555;29;20048;-51
2021/12/16 09:52:24;;;;;;;18.08;10.38;;;;;;;;;;5170625;27;20125;-53
2021/12/16 09:54:50;;;;;;;23.20;10.40;;;;;;;;;;5168426;27;20469;-54
2021/12/16 09:57:16;;;;;;;20.48;10.77;;;;;;;;;;5164469;27;20494;-57
2021/12/16 09:59:42;;;;;;;20.83;10.38;;;;;;;;;;5139505;27;20205;-55
2021/12/16 10:02:12;;;;;;;19.33;10.98;;;;;;;;;;5091628;27;20112;-52
2021/12/16 10:04:39;;;;;;;18.50;11.32;;;;;;;;;;5042621;28;20029;-56
2021/12/16 10:07:17;;;;;;;22.42;11.13;;;;;;;;;;4989705;28;20042;-58
2021/12/16 10:09:45;;;;;;;16.35;10.05;;;;;;;;;;4736404;29;20094;-55
2021/12/16 10:12:15;;;;;;;21.70;10.95;;;;;;;;;;4560142;30;20505;-56
2021/12/16 10:17:41;;;;;;;19.55;10.65;;;;;;;;;;5110879;27;20132;-52
2021/12/16 10:20:24;;;;;;;22.83;9.90;;;;;;;;;;5102605;27;20063;-48
2021/12/16 10:22:51;;;;;;;19.13;10.30;;;;;;;;;;5021855;28;20037;-48
2021/12/16 10:25:30;;;;;;;21.60;10.73;;;;;;;;;;4992460;28;20039;-49
2021/12/16 10:28:01;;;;;;;30.42;10.60;;;;;;;;;;4914792;28;20508;-49
2021/12/16 10:30:41;;;;;;;18.83;9.57;;;;;;;;;;4839308;29;20042;-54
2021/12/16 10:33:13;;;;;;;17.65;9.60;;;;;;;;;;4711385;29;20721;-54
2021/12/16 10:35:38;;;;;;;18.30;10.43;;;;;;;;;;4536669;31;20566;-48
2021/12/16 10:38:06;;;;;;;18.23;10.23;;;;;;;;;;4509086;31;20130;-52
2021/12/16 10:42:18;;;;;;;16.95;9.32;;;;;;;;;;5147914;27;20122;-48
2021/12/16 10:44:43;;;;;;;21.50;11.32;;;;;;;;;;5121455;27;20037;-47
2021/12/16 10:47:13;;;;;;;17.90;9.70;;;;;;;;;;5144614;27;20066;-49
2021/12/16 10:49:42;;;;;;;18.05;10.10;;;;;;;;;;5123975;27;20035;-53
2021/12/16 10:52:18;;;;;;;19.23;10.80;;;;;;;;;;5059967;27;20042;-51
2021/12/16 10:54:47;;;;;;;19.73;10.73;;;;;;;;;;4911202;28;20123;-48
2021/12/16 10:57:19;;;;;;;19.00;10.25;;;;;;;;;;4821006;29;20110;-52
2021/12/16 10:59:46;;;;;;;19.52;10.43;;;;;;;;;;4704460;29;20039;-48
2021/12/16 11:02:25;;;;;;;18.90;10.25;;;;;;;;;;4448694;30;20116;-49
2021/12/16 11:06:32;;;;;;;21.13;10.60;;;;;;;;;;5155336;27;20255;-50
2021/12/16 11:09:25;;;;;;;20.13;10.52;;;;;;;;;;5146939;27;20143;-49
2021/12/16 11:12:14;;;;;;;23.48;10.40;;;;;;;;;;5127550;27;20038;-50
2021/12/16 11:14:46;;;;;;;21.08;11.32;;;;;;;;;;5108620;28;20399;-49
2021/12/16 11:17:15;;;;;;;20.35;10.32;;;;;;;;;;5023646;28;20126;-52
2021/12/16 11:20:09;;;;;;;19.65;11.23;;;;;;;;;;4905529;28;20495;-48
2021/12/16 11:22:38;;;;;;;19.20;10.32;;;;;;;;;;4755003;29;20483;-48
2021/12/16 11:25:21;;;;;;;22.05;10.73;;;;;;;;;;4508379;30;62299;-49
2021/12/16 11:27:49;;;;;;;;;;;;;;;;;;4336201;31;66316;-47
2021/12/16 11:30:27;;;;;;;18.83;10.70;;;;;;;;;;4244477;33;19944;-51
2021/12/16 11:32:54;;;;;;;22.70;11.93;;;;;;;;;;4213313;33;20155;-51
2021/12/16 11:35:39;;;;;;;21.25;11.57;;;;;;;;;;4213223;33;20432;-47
2021/12/16 11:38:35;;;;;;;20.02;11.68;;;;;;;;;;4214735;33;20212;-60
2021/12/16 11:41:32;;;;;;;21.90;12.20;;;;;;;;;;4212457;33;20574;-49
2021/12/16 11:44:05;;;;;;;20.83;11.70;;;;;;;;;;4214017;33;20063;-47
2021/12/16 11:46:42;;;;;;;25.80;11.35;;;;;;;;;;4212096;33;20063;-51
2021/12/16 11:49:14;;;;;;;20.00;11.40;;;;;;;;;;4211800;33;20055;-48
2021/12/16 11:51:46;;;;;;;20.25;11.75;;;;;;;;;;4211233;33;20056;-50
2021/12/16 11:54:25;;;;;;;20.95;11.93;;;;;;;;;;4211958;33;20249;-49
2021/12/16 11:56:56;;;;;;;23.77;12.30;;;;;;;;;;4209695;33;20488;-52
2021/12/16 11:59:36;;;;;;;21.48;11.57;;;;;;;;;;4219323;33;20055;-50
2021/12/16 12:02:02;;;;;;;22.13;12.40;;;;;;;;;;4233734;33;20086;-48
2021/12/16 12:04:33;;;;;;;20.13;12.00;;;;;;;;;;4225647;33;20191;-49
2021/12/16 12:06:58;;;;;;;20.92;12.30;;;;;;;;;;4225777;33;20059;-53
2021/12/16 12:09:38;;;;;;;23.50;11.82;;;;;;;;;;4226587;33;20062;-51
2021/12/16 12:12:04;;;;;;;21.90;11.95;;;;;;;;;;4225589;33;20055;-47
2021/12/16 12:14:35;;;;;;;21.75;12.13;;;;;;;;;;4234060;33;20074;-51
2021/12/16 12:17:16;;;;;;;21.38;12.00;;;;;;;;;;4218478;33;20048;-49
2021/12/16 12:19:47;;;;;;;21.52;11.50;;;;;;;;;;4214960;33;20511;-53
2021/12/16 12:22:14;;;;;;;23.35;12.15;;;;;;;;;;4216502;33;20050;-48
2021/12/16 12:24:44;;;;;;;19.67;11.73;;;;;;;;;;4208050;33;20512;-51
2021/12/16 12:27:17;;;;;;;19.80;11.88;;;;;;;;;;4272212;32;34279;-52
2021/12/16 12:29:53;;;;;;;20.70;11.65;;;;;;;;;;4366381;32;20047;-49
2021/12/16 12:32:25;;;;;;;20.98;11.95;;;;;;;;;;4476482;31;20046;-47
2021/12/16 12:34:55;;;;;;;21.05;11.57;;;;;;;;;;4564151;31;20037;-49
2021/12/16 12:37:23;;;;;;;18.42;11.05;;;;;;;;;;4609337;30;20035;-51
2021/12/16 12:39:53;;;;;;;18.80;10.25;;;;;;;;;;4564235;31;20523;-49
2021/12/16 12:44:24;;;;;;;20.67;11.23;;;;;;;;;;5134331;27;20590;-48
2021/12/16 12:46:52;;;;;;;19.85;11.05;;;;;;;;;;5016060;28;1273963;-51
2021/12/16 12:49:25;;;;;;;17.27;10.80;;;;;;;;;;5101710;28;20085;-51
2021/12/16 12:51:51;;;;;;;;;;;;;;;;;;5101712;28;20058;-45
2021/12/16 12:54:26;;;;;;;22.85;11.02;;;;;;;;;;5103352;28;19912;-54
2021/12/16 12:56:56;;;;;;;19.25;11.15;;;;;;;;;;5101153;28;20027;-52
2021/12/16 12:59:33;;;;;;;21.70;10.52;;;;;;;;;;5087594;28;20028;-50
2021/12/16 13:01:58;;;;;;;18.58;10.30;;;;;;;;;;5079174;28;20036;-52
2021/12/16 13:04:31;;;;;;;20.60;10.95;;;;;;;;;;5080926;28;20394;-52
2021/12/16 13:07:15;;;;;;;19.15;11.18;;;;;;;;;;5080788;28;20111;-51
2021/12/16 13:09:43;;;;;;;;;;;;;;;;;;5082030;28;20087;-45
2021/12/16 13:12:21;;;;;;;19.77;11.20;;;;;;;;;;5081184;28;19919;-50
2021/12/16 13:14:48;;;;;;;21.50;11.48;;;;;;;;;;5082957;28;20147;-49
2021/12/16 13:26:44;;;;;;;20.63;11.45;;;;;;;;;;5075497;28;20499;-53
2021/12/16 13:29:37;;;;;;;19.77;11.45;;;;;;;;;;5080472;28;20111;-47
2021/12/16 13:32:14;;;;;;;21.77;9.95;;;;;;;;;;5081287;28;20028;-50
2021/12/16 13:34:52;;;;;;;20.73;11.15;;;;;;;;;;5077990;28;20392;-52
2021/12/16 13:37:24;;;;;;;17.80;10.60;;;;;;;;;;5080745;28;20103;-49
2021/12/16 13:39:57;;;;;;;22.63;10.52;;;;;;;;;;5079316;28;20036;-50
2021/12/16 13:42:23;;;;;;;21.20;10.85;;;;;;;;;;5081804;28;20089;-49
2021/12/16 13:45:03;;;;;;;15.27;9.93;;;;;;;;;;5079958;28;20127;-52
2021/12/16 14:04:38;;;;;;;19.45;9.45;;;;;;;;;;5045602;28;20041;-51
2021/12/16 14:07:50;;;;;;;19.63;10.52;;;;;;;;;;5046870;28;20029;-50
2021/12/16 14:17:50;;;;;;;23.88;11.02;;;;;;;;;;5045536;28;20303;-54
2021/12/16 14:23:24;;;;;;;17.88;10.10;;;;;;;;;;5051685;28;20052;-50
2021/12/16 14:45:40;;;;;;;23.25;10.68;;;;;;;;;;5045390;28;20040;-50
2021/12/16 14:51:06;;;;;;;22.40;10.95;;;;;;;;;;5043544;28;20040;-48
2021/12/16 14:53:38;;;;;;;20.20;10.15;;;;;;;;;;5045231;28;20079;-51
2021/12/16 14:56:23;;;;;;;23.17;10.13;;;;;;;;;;5046816;28;20028;-49
2021/12/16 14:58:51;;;;;;;19.60;10.55;;;;;;;;;;5045802;28;20078;-52
2021/12/16 15:01:23;;;;;;;21.27;10.02;;;;;;;;;;5045635;28;20041;-50
2021/12/16 15:03:51;;;;;;;17.48;10.00;;;;;;;;;;5043408;28;20154;-53
2021/12/16 15:06:31;;;;;;;18.33;10.20;;;;;;;;;;5046327;28;20025;-53
2021/12/16 15:09:10;;;;;;;20.05;10.30;;;;;;;;;;5047470;28;20615;-51
2021/12/16 15:11:58;;;;;;;22.40;10.50;;;;;;;;;;5046297;28;20032;-50
2021/12/16 15:44:19;;;;;;;28.10;13.57;;;;;;;;;;5046958;28;20033;-50
2021/12/16 15:46:49;;;;;;;28.60;13.30;;;;;;;;;;5045304;28;20027;-51
2021/12/16 15:49:15;;;;;;;24.98;12.57;;;;;;;;;;5044642;28;20075;-50
2021/12/16 15:51:40;;;;;;;24.23;13.25;;;;;;;;;;5044153;28;20602;-47
2021/12/16 15:54:10;;;;;;;29.85;13.27;;;;;;;;;;5043170;28;20036;-48
2021/12/16 15:56:38;;;;;;;27.08;12.75;;;;;;;;;;5041766;28;20032;-48
2021/12/16 15:59:14;;;;;;;29.05;12.57;;;;;;;;;;5044840;28;20028;-48
2021/12/16 16:01:46;;;;;;;29.73;13.52;;;;;;;;;;5040265;28;20068;-50
2021/12/16 16:04:16;;;;;;;22.30;13.00;;;;;;;;;;5042982;28;20032;-49
2021/12/16 16:06:44;;;;;;;24.10;12.73;;;;;;;;;;5042080;28;20033;-50
2021/12/16 16:09:11;;;;;;;29.88;14.07;;;;;;;;;;5041584;28;20027;-51
2021/12/16 16:11:50;;;;;;;31.98;13.60;;;;;;;;;;5046306;28;20510;-48
2021/12/16 16:14:17;;;;;;;28.95;13.50;;;;;;;;;;5043195;28;20021;-52
2021/12/16 16:16:49;;;;;;;28.23;13.30;;;;;;;;;;5023423;28;20025;-46
2021/12/16 16:19:22;;;;;;;22.60;13.23;;;;;;;;;;5043299;28;20036;-48
2021/12/16 16:21:50;;;;;;;27.00;13.13;;;;;;;;;;5044389;28;20040;-47
2021/12/16 16:24:18;;;;;;;28.52;13.35;;;;;;;;;;5043661;28;20098;-49
2021/12/16 16:26:45;;;;;;;24.35;12.65;;;;;;;;;;5043442;28;20090;-54
2021/12/16 16:29:19;;;;;;;33.28;12.93;;;;;;;;;;5042760;28;20041;-52
2021/12/16 16:31:45;;;;;;;25.60;12.85;;;;;;;;;;5044534;28;20045;-52
2021/12/16 16:34:24;;;;;;;29.63;12.52;;;;;;;;;;5040709;28;20027;-49
2021/12/16 16:36:52;;;;;;;31.00;12.77;;;;;;;;;;5041044;28;20033;-53
2021/12/16 16:39:22;;;;;;;27.60;13.90;;;;;;;;;;5048430;28;20043;-53
2021/12/16 16:41:57;;;;;;;25.35;13.63;;;;;;;;;;5043222;28;20048;-49
2021/12/16 16:44:25;;;;;;;25.90;14.00;;;;;;;;;;5045312;28;20036;-53
2021/12/16 16:47:10;;;;;;;26.15;13.88;;;;;;;;;;5039055;28;20392;-55
2021/12/16 16:49:49;;;;;;;28.60;13.32;;;;;;;;;;5043798;28;20116;-50
2021/12/16 16:52:36;;;;;;;27.25;12.98;;;;;;;;;;5039538;28;20036;-48
2021/12/16 16:55:01;;;;;;;25.45;12.35;;;;;;;;;;5029793;28;20040;-53
2021/12/16 16:57:30;;;;;;;27.95;13.02;;;;;;;;;;5022930;28;20481;-51
2021/12/16 16:59:59;;;;;;;25.70;14.27;;;;;;;;;;5040835;28;20547;-59
2021/12/16 17:03:01;;;;;;;27.73;13.60;;;;;;;;;;5037823;28;20033;-50
2021/12/16 17:05:34;;;;;;;32.25;13.65;;;;;;;;;;4982092;28;20022;-54
2021/12/16 17:08:04;;;;;;;28.50;13.15;;;;;;;;;;5032752;28;20127;-52
2021/12/16 17:10:39;;;;;;;29.42;13.73;;;;;;;;;;5044306;28;20427;-52
2021/12/16 17:13:08;;;;;;;28.75;14.18;;;;;;;;;;5039816;28;20039;-51
2021/12/16 17:15:44;;;;;;;28.92;14.45;;;;;;;;;;5044236;28;20116;-49
2021/12/16 17:18:28;;;;;;;26.02;12.75;;;;;;;;;;5024045;28;20059;-50
2021/12/16 17:20:58;;;;;;;31.30;14.65;;;;;;;;;;5042299;28;20469;-51
2021/12/16 17:23:33;;;;;;;27.67;15.10;;;;;;;;;;5041681;28;20039;-51
2021/12/16 17:26:19;;;;;;;31.30;14.75;;;;;;;;;;5040454;28;20494;-49
2021/12/16 17:28:51;;;;;;;40.90;14.25;;;;;;;;;;5021230;28;20025;-52
2021/12/16 17:31:30;;;;;;;35.75;15.00;;;;;;;;;;5045305;28;20515;-48
2021/12/16 17:34:10;;;;;;;34.83;14.75;;;;;;;;;;5046074;28;20201;-50
2021/12/16 17:36:37;;;;;;;30.98;14.45;;;;;;;;;;5044725;28;20068;-49
2021/12/16 17:39:11;;;;;;;33.22;14.15;;;;;;;;;;5045849;28;20552;-52
2021/12/16 17:41:38;;;;;;;26.02;13.43;;;;;;;;;;5041316;28;20381;-51
2021/12/16 17:44:11;;;;;;;28.85;14.35;;;;;;;;;;5027408;28;20036;-49
2021/12/16 17:46:36;;;;;;;30.50;15.13;;;;;;;;;;5044003;28;20024;-48
2021/12/16 17:49:05;;;;;;;29.52;16.38;;;;;;;;;;5043374;28;20146;-53
2021/12/16 17:51:31;;;;;;;29.08;15.30;;;;;;;;;;5047548;28;20060;-49
2021/12/16 17:54:05;;;;;;;29.10;15.27;;;;;;;;;;5047545;28;20028;-51
2021/12/16 17:56:31;;;;;;;27.63;14.95;;;;;;;;;;5045736;28;20028;-52
2021/12/16 17:59:01;;;;;;;28.23;14.95;;;;;;;;;;5044449;28;20497;-55
2021/12/16 18:01:33;;;;;;;25.38;15.05;;;;;;;;;;5051549;28;20033;-52
2021/12/16 18:04:07;;;;;;;40.95;15.20;;;;;;;;;;5047463;28;20566;-52
2021/12/16 18:06:57;;;;;;;27.08;14.43;;;;;;;;;;5052083;28;20445;-52
2021/12/16 18:09:28;;;;;;;27.67;14.27;;;;;;;;;;5045661;28;20108;-51
2021/12/16 18:11:56;;;;;;;28.92;15.35;;;;;;;;;;5049643;28;20036;-53
2021/12/16 18:14:45;;;;;;;26.75;14.07;;;;;;;;;;5045853;28;20032;-52
2021/12/16 18:17:26;;;;;;;30.38;14.23;;;;;;;;;;5045006;28;20531;-50
2021/12/16 18:20:10;;;;;;;28.15;14.38;;;;;;;;;;5045956;28;20036;-49
2021/12/16 18:22:39;;;;;;;28.52;14.77;;;;;;;;;;5045684;28;20045;-53
2021/12/16 18:25:10;;;;;;;25.48;14.82;;;;;;;;;;5047368;28;20032;-47
2021/12/16 18:27:43;;;;;;;32.13;15.05;;;;;;;;;;5048305;28;20569;-51
2021/12/16 18:30:14;;;;;;;29.40;14.82;;;;;;;;;;5046677;28;20119;-47
2021/12/16 18:32:44;;;;;;;28.38;14.48;;;;;;;;;;5043749;28;20541;-51
2021/12/16 18:35:13;;;;;;;28.30;15.30;;;;;;;;;;5047009;28;20078;-53
2021/12/16 18:37:43;;;;;;;31.40;15.48;;;;;;;;;;5042522;28;20108;-50
2021/12/16 18:40:11;;;;;;;31.95;15.75;;;;;;;;;;5044596;28;20086;-52
2021/12/16 18:42:37;;;;;;;30.50;15.32;;;;;;;;;;5043327;28;20110;-50
2021/12/16 18:45:12;;;;;;;34.67;15.88;;;;;;;;;;5047968;28;20040;-51
2021/12/16 18:47:54;;;;;;;31.52;15.15;;;;;;;;;;5042811;28;20403;-51
2021/12/16 18:55:48;;;;;;;31.02;15.55;;;;;;;;;;5046964;28;20116;-53
2021/12/16 18:58:14;;;;;;;30.90;14.87;;;;;;;;;;5044375;28;20032;-52
2021/12/16 19:00:44;;;;;;;27.33;15.02;;;;;;;;;;5045580;28;20033;-51
2021/12/16 19:03:09;;;;;;;25.73;14.25;;;;;;;;;;5045628;28;20025;-46